SCBA/BBA METAR and TAF weather

Enter ICAO airport designator
Station Type Date Time Source
SCBA METAR 2022/07/03 15:00 UTC NOAA

SCBA 031500Z VRB02KT 9999 BKN025 BKN200 M01/M03 Q0999


Station Type Date Time Source
SCBA Decoded METAR 2022/07/03 15:00 UTC NOAA

Balmaceda, Chile (SCBA) 45-55S 071-41W 520M
Jul 03, 2022 - 11:00 AM EDT / 2022.07.03 1500 UTC
Wind: Variable at 2 MPH (2 KT):0
Visibility: greater than 7 mile(s):0
Sky conditions: mostly cloudy
Temperature: 30 F (-1 C)
Dew Point: 26 F (-3 C)
Relative Humidity: 86%
Pressure (altimeter): 29.50 in. Hg (0999 hPa)
ob: SCBA 031500Z VRB02KT 9999 BKN025 BKN200 M01/M03 Q0999
cycle: 15

Station Type Date Time Source
SCBA TAF 2022/07/03 12:03 UTC NOAA

TAF SCBA 031041Z 0312/0412 30005KT 7000 -SN BKN020 BKN040 TNM03/0312Z TX01/0318Z
TEMPO 0321/0324 VRB02KT 5000 SN
BECMG 0402/0404 31010KT 9999 NSW SCT030

Example: see airport list